Albertville, Wisconsin
Current Conditions -  °F | °C
As of 1:55 PM on Tuesday 21 Oct 2014 (Local Time) from KLUM Reporting Station
Clear Clear  
Wind Chill: 53°   Ceiling: Unl
Heat Index: 53°   Visibility: 10mi
Dew Point: 37°   Wind: 5mph
Humidity: 55%   Direction: 130°SE
Pressure: 30.21"   Gusts: NA
Location:  45.0099°N, 91.7075°W
Report Text: KLUM 211855Z AUTO 13004KT 10SM CLR 12/03 A3021 RMK AO2 T01160029
Loading
Personal Weather Stations






























Interactive Weather Map New forecast layout! Learn more

10-Day Weather Forecast

Advertisements
Track Severe Weather on mobile